map of LXR home
Great Circle Mapper logo
LXR - Airport
Location
City:  Luxor, Egypt
Name:Luxor International Airport
ICAO / IATA:HELX / LXR

Details
Type:Airport (Aerodrome, Airfield)
Use:Public/Civil, International (customs port of entry)
Latitude:2540'16"N (25.671028)
Longitude:3242'24"E (32.706583)
Datum:other
Elevation:294 ft (90 m)
Runways:1
Longest:9843 × 148 ft (3000 × 45 m), paved

Time
Time Zone:UTC+2
Local Time:

Weather
METAR:HELX 241300Z 29004KT CAVOK 42/13 Q1005 NOSIG
TAF:HELX 231700Z 2318/2424 29005KT CAVOK = TAF HESN 231700Z 2318/2424 33007KT CAVOK

Related Locations
Nearby:
Farthest:NTAV: 12305 mi / 19803 km
Raivavae, Tubuai Islands, Austral Islands, PF

Find:

   beyond  
but within

Other Information
Maps:
NOTAMs:
Links:
Sources:

  
flag of Egypt   

Sectional Chart

Flight Planning
at skyvector.com

Satellite Image

Google Maps Satellite View

 

Copyright © 2004-2014 Karl L. Swartz. All rights reserved.
The Great Circle Mapper name and logo are trademarks of the Great Circle Mapper.
All other trademarks mentioned herein belong to their respective owners.
Please see credits for attibutions and further copyright information.

  Follow gcmap on Facebook Follow gcmap on Twitter

hCard Microformat

Geo Microformat